createdAt,value
2019-02-09T00:02:24.694Z,990.30
2019-02-09T00:07:24.310Z,990.20
2019-02-09T00:12:24.425Z,990.19
2019-02-09T00:17:24.459Z,990.13
2019-02-09T00:22:24.419Z,990.06
2019-02-09T00:27:24.370Z,989.94
2019-02-09T00:32:24.469Z,989.93
2019-02-09T00:37:24.419Z,989.72
2019-02-09T00:42:24.313Z,989.66
2019-02-09T00:47:24.473Z,989.46
2019-02-09T00:52:24.414Z,989.51
2019-02-09T00:57:24.455Z,989.38
2019-02-09T01:02:24.391Z,989.27
2019-02-09T01:07:25.049Z,989.23
2019-02-09T01:12:24.452Z,989.31
2019-02-09T01:17:24.370Z,989.32
2019-02-09T01:22:24.393Z,989.52
2019-02-09T01:27:24.466Z,989.38
2019-02-09T01:32:24.502Z,989.40
2019-02-09T01:37:24.572Z,989.43
2019-02-09T01:42:24.647Z,989.54
2019-02-09T01:47:24.367Z,989.71
2019-02-09T01:52:24.573Z,989.69
2019-02-09T01:57:24.671Z,989.87
2019-02-09T02:02:25.110Z,989.86
2019-02-09T02:07:24.692Z,989.93
2019-02-09T02:12:24.560Z,990.00
2019-02-09T02:17:24.513Z,989.51
2019-02-09T02:22:24.551Z,989.39
2019-02-09T02:27:24.463Z,989.13
2019-02-09T02:32:24.725Z,989.39
2019-02-09T02:37:24.547Z,989.26
2019-02-09T02:42:24.488Z,989.33
2019-02-09T02:47:24.622Z,989.44
2019-02-09T02:52:24.546Z,989.42
2019-02-09T02:57:24.568Z,989.51
2019-02-09T03:02:24.534Z,989.70
2019-02-09T03:07:24.535Z,989.84
2019-02-09T03:12:24.702Z,989.86
2019-02-09T03:17:24.510Z,989.92
2019-02-09T03:22:24.564Z,989.89
2019-02-09T03:27:24.502Z,989.79
2019-02-09T03:32:24.515Z,989.84
2019-02-09T03:37:24.643Z,989.91
2019-02-09T03:42:24.601Z,990.05
2019-02-09T03:47:24.532Z,989.98
2019-02-09T03:52:24.570Z,989.95
2019-02-09T03:57:24.713Z,990.05
2019-02-09T04:02:24.743Z,990.25
2019-02-09T04:07:24.570Z,990.24
2019-02-09T04:12:24.571Z,990.32
2019-02-09T04:17:24.760Z,990.41
2019-02-09T04:22:24.573Z,990.44
2019-02-09T04:27:24.606Z,990.51
2019-02-09T04:32:24.512Z,990.64
2019-02-09T04:37:25.494Z,990.74
2019-02-09T04:42:25.814Z,990.83
2019-02-09T04:47:25.328Z,990.89
2019-02-09T04:52:25.413Z,990.81
2019-02-09T04:57:25.323Z,990.98
2019-02-09T05:02:25.436Z,990.89
2019-02-09T05:07:24.590Z,990.92
2019-02-09T05:12:25.878Z,990.90
2019-02-09T05:17:24.869Z,990.82
2019-02-09T05:22:24.668Z,991.08
2019-02-09T05:27:25.128Z,991.10
2019-02-09T05:32:24.764Z,991.31
2019-02-09T05:37:24.676Z,991.39
2019-02-09T05:42:24.813Z,991.39
2019-02-09T05:47:24.865Z,991.44
2019-02-09T05:52:25.024Z,991.56
2019-02-09T05:57:24.604Z,991.50
2019-02-09T06:02:25.058Z,991.68
2019-02-09T06:07:24.792Z,991.71
2019-02-09T06:12:24.633Z,991.82
2019-02-09T06:17:24.772Z,991.85
2019-02-09T06:22:24.787Z,991.81
2019-02-09T06:27:24.633Z,991.79
2019-02-09T06:32:24.668Z,991.86
2019-02-09T06:37:24.700Z,991.88
2019-02-09T06:42:24.663Z,992.04
2019-02-09T06:47:24.663Z,992.25
2019-02-09T06:52:24.702Z,992.27
2019-02-09T06:57:24.680Z,992.38
2019-02-09T07:02:24.756Z,992.46
2019-02-09T07:07:26.094Z,992.58
2019-02-09T07:12:24.860Z,992.56
2019-02-09T07:17:24.686Z,992.83
2019-02-09T07:22:24.829Z,992.80
2019-02-09T07:27:24.835Z,992.78
2019-02-09T07:32:24.868Z,992.88
2019-02-09T07:37:24.792Z,993.01
2019-02-09T07:42:24.745Z,993.15
2019-02-09T07:47:24.773Z,993.46
2019-02-09T07:52:24.738Z,993.58
2019-02-09T07:57:24.738Z,993.62
2019-02-09T08:02:25.115Z,993.73
2019-02-09T08:07:24.956Z,993.86
2019-02-09T08:12:24.855Z,993.72
2019-02-09T08:17:24.797Z,993.92
2019-02-09T08:22:24.853Z,994.01
2019-02-09T08:27:24.887Z,994.13
2019-02-09T08:32:24.923Z,994.16
2019-02-09T08:37:24.827Z,994.22
2019-02-09T08:42:24.747Z,994.20
2019-02-09T08:47:24.826Z,994.34
2019-02-09T08:52:25.033Z,994.44
2019-02-09T08:57:24.768Z,994.42
2019-02-09T09:02:24.803Z,994.35
2019-02-09T09:07:24.833Z,994.27
2019-02-09T09:12:24.857Z,994.20
2019-02-09T09:17:24.780Z,994.40
2019-02-09T09:22:24.820Z,994.39
2019-02-09T09:27:24.866Z,994.55
2019-02-09T09:32:28.792Z,994.58
2019-02-09T09:37:24.821Z,994.55
2019-02-09T09:42:24.915Z,994.59
2019-02-09T09:47:24.830Z,994.58
2019-02-09T09:52:24.935Z,994.69
2019-02-09T09:57:24.804Z,994.66
2019-02-09T10:02:24.810Z,994.66
2019-02-09T10:07:24.802Z,994.97
2019-02-09T10:12:24.870Z,995.01
2019-02-09T10:17:24.825Z,994.88
2019-02-09T10:22:24.846Z,995.02
2019-02-09T10:27:24.843Z,994.92
2019-02-09T10:32:25.116Z,994.95
2019-02-09T10:37:24.842Z,994.92
2019-02-09T10:42:24.982Z,995.03
2019-02-09T10:47:24.818Z,994.97
2019-02-09T10:52:24.854Z,995.03
2019-02-09T10:57:24.871Z,995.09
2019-02-09T11:02:25.157Z,995.09
2019-02-09T11:07:25.053Z,994.97
2019-02-09T11:12:25.010Z,995.00
2019-02-09T11:17:24.950Z,994.97
2019-02-09T11:22:25.161Z,995.05
2019-02-09T11:27:25.418Z,994.98
2019-02-09T11:32:24.925Z,995.08
2019-02-09T11:37:24.976Z,995.04
2019-02-09T11:42:25.198Z,995.09
2019-02-09T11:47:25.242Z,995.16
2019-02-09T11:52:25.409Z,995.09
2019-02-09T11:57:25.295Z,995.10
2019-02-09T12:02:25.653Z,994.94
2019-02-09T12:07:25.397Z,994.93
2019-02-09T12:12:25.037Z,994.87
2019-02-09T12:17:24.986Z,995.04
2019-02-09T12:22:25.175Z,995.18
2019-02-09T12:27:25.424Z,995.23
2019-02-09T12:32:25.131Z,995.03
2019-02-09T12:37:25.305Z,994.99
2019-02-09T12:42:25.311Z,994.89
2019-02-09T12:47:25.259Z,994.93
2019-02-09T12:52:25.236Z,994.77
2019-02-09T12:57:25.041Z,994.81
2019-02-09T13:02:25.266Z,994.85
2019-02-09T13:07:25.073Z,994.80
2019-02-09T13:12:24.984Z,994.93
2019-02-09T13:17:25.153Z,994.95
2019-02-09T13:22:25.200Z,995.04
2019-02-09T13:27:24.988Z,995.05
2019-02-09T13:32:25.070Z,995.12
2019-02-09T13:37:25.484Z,995.15
2019-02-09T13:42:25.265Z,995.18
2019-02-09T13:47:25.039Z,995.14
2019-02-09T13:52:25.199Z,995.03
2019-02-09T13:57:25.141Z,995.20
2019-02-09T14:02:26.118Z,995.15
2019-02-09T14:07:25.651Z,995.34
2019-02-09T14:12:25.229Z,995.17
2019-02-09T14:17:26.285Z,995.47
2019-02-09T14:22:25.077Z,995.55
2019-02-09T14:27:25.446Z,995.77
2019-02-09T14:32:25.483Z,995.93
2019-02-09T14:37:25.435Z,995.80
2019-02-09T14:42:25.544Z,995.90
2019-02-09T14:47:25.522Z,996.01
2019-02-09T14:52:25.826Z,995.89
2019-02-09T14:57:25.068Z,995.92
2019-02-09T15:02:25.062Z,996.01
2019-02-09T15:07:25.160Z,995.99
2019-02-09T15:12:25.248Z,996.02
2019-02-09T15:17:25.240Z,995.96
2019-02-09T15:22:25.343Z,996.18
2019-02-09T15:27:25.162Z,996.22
2019-02-09T15:32:25.202Z,996.15
2019-02-09T15:37:25.124Z,996.19
2019-02-09T15:42:25.281Z,996.16
2019-02-09T15:47:25.333Z,996.17
2019-02-09T15:52:25.157Z,996.22
2019-02-09T15:57:25.159Z,996.35
2019-02-09T16:02:25.867Z,996.28
2019-02-09T16:07:25.234Z,996.29
2019-02-09T16:12:25.117Z,996.22
2019-02-09T16:17:25.314Z,996.24
2019-02-09T16:22:25.555Z,996.20
2019-02-09T16:27:25.399Z,996.25
2019-02-09T16:32:25.218Z,996.36
2019-02-09T16:37:25.390Z,996.25
2019-02-09T16:42:25.416Z,996.27
2019-02-09T16:47:25.179Z,996.29
2019-02-09T16:52:25.316Z,996.30
2019-02-09T16:57:25.190Z,996.36
2019-02-09T17:02:25.257Z,996.39
2019-02-09T17:07:25.482Z,996.46
2019-02-09T17:12:25.300Z,996.59
2019-02-09T17:17:25.180Z,996.57
2019-02-09T17:22:25.252Z,996.54
2019-02-09T17:27:25.397Z,996.68
2019-02-09T17:32:25.189Z,996.67
2019-02-09T17:37:25.445Z,996.81
2019-02-09T17:42:25.299Z,996.86
2019-02-09T17:47:25.193Z,997.04
2019-02-09T17:52:25.323Z,997.01
2019-02-09T17:57:25.301Z,997.02
2019-02-09T18:02:25.306Z,997.00
2019-02-09T18:07:25.277Z,997.07
2019-02-09T18:12:26.532Z,997.09
2019-02-09T18:17:25.289Z,997.09
2019-02-09T18:22:25.286Z,997.33
2019-02-09T18:27:25.390Z,997.40
2019-02-09T18:32:25.350Z,997.25
2019-02-09T18:37:25.246Z,997.17
2019-02-09T18:42:25.622Z,997.24
2019-02-09T18:47:25.333Z,997.14
2019-02-09T18:52:25.390Z,997.22
2019-02-09T18:57:25.287Z,997.15
2019-02-09T19:02:25.325Z,997.19
2019-02-09T19:07:25.361Z,997.17
2019-02-09T19:12:25.321Z,997.04
2019-02-09T19:17:25.263Z,997.01
2019-02-09T19:22:25.301Z,997.05
2019-02-09T19:27:25.374Z,997.04
2019-02-09T19:32:25.556Z,996.97
2019-02-09T19:37:25.400Z,996.93
2019-02-09T19:42:25.602Z,996.95
2019-02-09T19:47:25.348Z,996.84
2019-02-09T19:52:25.822Z,996.84
2019-02-09T19:57:25.503Z,996.87
2019-02-09T20:02:25.399Z,996.82
2019-02-09T20:07:25.371Z,996.83
2019-02-09T20:12:26.173Z,996.65
2019-02-09T20:17:25.385Z,996.61
2019-02-09T20:22:25.478Z,996.57
2019-02-09T20:27:25.445Z,996.56
2019-02-09T20:32:25.432Z,996.61
2019-02-09T20:37:25.472Z,996.59
2019-02-09T20:42:25.479Z,996.52
2019-02-09T20:47:25.478Z,996.59
2019-02-09T20:52:25.385Z,996.71
2019-02-09T20:57:25.755Z,996.65
2019-02-09T21:02:25.640Z,996.74
2019-02-09T21:07:25.396Z,996.61
2019-02-09T21:12:25.455Z,996.50
2019-02-09T21:17:25.549Z,996.49
2019-02-09T21:22:25.631Z,996.51
2019-02-09T21:27:25.664Z,996.56
2019-02-09T21:32:25.460Z,996.55
2019-02-09T21:37:25.525Z,996.65
2019-02-09T21:42:25.427Z,996.66
2019-02-09T21:47:27.456Z,996.56
2019-02-09T21:52:25.500Z,996.57
2019-02-09T21:57:25.430Z,996.64
2019-02-09T22:02:25.567Z,996.54
2019-02-09T22:07:25.488Z,996.62
2019-02-09T22:12:25.761Z,996.55
2019-02-09T22:17:25.558Z,996.55
2019-02-09T22:22:25.530Z,996.50
2019-02-09T22:27:25.552Z,996.49
2019-02-09T22:32:25.460Z,996.38
2019-02-09T22:37:25.518Z,996.34
2019-02-09T22:42:25.659Z,996.40
2019-02-09T22:47:25.490Z,996.31
2019-02-09T22:52:25.628Z,996.27
2019-02-09T22:57:25.570Z,996.24
2019-02-09T23:02:25.584Z,996.14
2019-02-09T23:07:25.633Z,996.07
2019-02-09T23:12:25.570Z,996.03
2019-02-09T23:17:25.585Z,995.94
2019-02-09T23:22:25.514Z,995.79
2019-02-09T23:27:25.558Z,995.75
2019-02-09T23:32:25.631Z,995.69
2019-02-09T23:37:25.622Z,995.58
2019-02-09T23:42:25.559Z,995.32
2019-02-09T23:47:25.793Z,995.25
2019-02-09T23:52:25.655Z,995.20
2019-02-09T23:57:25.700Z,995.06
